CEB225 RPVM-RPLL
Flight info
| Callsign | CEB225 |
|---|---|
| Flight time | N/A |
| Altitude | 36000 |
| Route | MULOC1Q MULOC W11 CONDE CONDE7R |
| Aircraft | A339/H-SADE1E2E3GHIJ3J5M1P2RWXY/LB2D1 |
Departure
| Time | 2026-04-30 15:14 |
|---|---|
| Airport | Mactan Cebu International Airport (RPVM) |
Arrival
| Time | N/A |
|---|---|
| Airport | Ninoy Aquino International Airport (RPLL) |
| Time | Latitude | Longitude | Altitude | Speed | Heading |
|---|---|---|---|---|---|
| 2026-04-30 14:49 | 10.31451 | 123.97889 | 52 ft | 0 kts | 315° |
| 2026-04-30 14:52 | 10.31448 | 123.97892 | 53 ft | 1 kts | 315° |
| 2026-04-30 14:52 | 10.31441 | 123.97899 | 53 ft | 2 kts | 310° |
| 2026-04-30 14:53 | 10.31427 | 123.97926 | 53 ft | 2 kts | 282° |
| 2026-04-30 14:53 | 10.31425 | 123.97940 | 53 ft | 2 kts | 270° |
| 2026-04-30 14:54 | 10.31428 | 123.97963 | 53 ft | 2 kts | 251° |
| 2026-04-30 14:54 | 10.31440 | 123.97985 | 53 ft | 2 kts | 230° |
| 2026-04-30 14:55 | 10.31446 | 123.97992 | 53 ft | 0 kts | 224° |
| 2026-04-30 14:57 | 10.31425 | 123.97970 | 53 ft | 4 kts | 227° |
| 2026-04-30 14:58 | 10.31369 | 123.97913 | 53 ft | 7 kts | 217° |
| 2026-04-30 14:58 | 10.31358 | 123.97884 | 52 ft | 4 kts | 292° |
| 2026-04-30 14:58 | 10.31397 | 123.97842 | 52 ft | 0 kts | 316° |
| 2026-04-30 14:59 | 10.31389 | 123.97823 | 52 ft | 2 kts | 180° |
| 2026-04-30 15:00 | 10.31298 | 123.97922 | 53 ft | 10 kts | 136° |
| 2026-04-30 15:00 | 10.31276 | 123.97945 | 52 ft | 0 kts | 135° |
| 2026-04-30 15:03 | 10.31263 | 123.97958 | 52 ft | 3 kts | 136° |
| 2026-04-30 15:04 | 10.31210 | 123.97980 | 52 ft | 6 kts | 203° |
| 2026-04-30 15:04 | 10.31083 | 123.97863 | 52 ft | 8 kts | 224° |
| 2026-04-30 15:05 | 10.30972 | 123.97748 | 53 ft | 8 kts | 225° |
| 2026-04-30 15:06 | 10.30900 | 123.97678 | 52 ft | 2 kts | 224° |
| 2026-04-30 15:06 | 10.30899 | 123.97677 | 52 ft | 0 kts | 224° |
| 2026-04-30 15:07 | 10.30897 | 123.97675 | 52 ft | 1 kts | 224° |
| 2026-04-30 15:08 | 10.30875 | 123.97653 | 53 ft | 3 kts | 224° |
| 2026-04-30 15:08 | 10.30799 | 123.97577 | 52 ft | 7 kts | 225° |
| 2026-04-30 15:09 | 10.30724 | 123.97501 | 52 ft | 8 kts | 225° |
| 2026-04-30 15:09 | 10.30633 | 123.97409 | 52 ft | 9 kts | 223° |
| 2026-04-30 15:10 | 10.30525 | 123.97302 | 53 ft | 12 kts | 225° |
| 2026-04-30 15:11 | 10.30334 | 123.97180 | 53 ft | 7 kts | 139° |
| 2026-04-30 15:11 | 10.30346 | 123.97261 | 53 ft | 0 kts | 46° |
| 2026-04-30 15:12 | 10.30352 | 123.97267 | 52 ft | 0 kts | 46° |
| 2026-04-30 15:13 | 10.30352 | 123.97268 | 52 ft | 0 kts | 46° |
| 2026-04-30 15:14 | 10.32767 | 123.99481 | 1006 ft | 196 kts | 40° |
| 2026-04-30 15:14 | 10.35999 | 124.01913 | 3184 ft | 218 kts | 355° |
| 2026-04-30 15:16 | 10.44049 | 123.99172 | 6243 ft | 252 kts | 341° |
| 2026-04-30 15:17 | 10.50549 | 123.97073 | 8500 ft | 280 kts | 341° |
| 2026-04-30 15:18 | 10.60086 | 123.94052 | 11706 ft | 324 kts | 341° |
| 2026-04-30 15:19 | 10.66056 | 123.91258 | 13994 ft | 332 kts | 316° |